createdAt,value
2022-11-09T00:00:44.023Z,4.72
2022-11-09T00:03:11.685Z,5.47
2022-11-09T00:05:40.143Z,5.20
2022-11-09T00:08:09.821Z,5.28
2022-11-09T00:10:38.108Z,4.45
2022-11-09T00:13:05.856Z,4.65
2022-11-09T00:15:33.244Z,5.43
2022-11-09T00:18:02.957Z,4.82
2022-11-09T00:20:30.250Z,6.20
2022-11-09T00:22:57.624Z,5.40
2022-11-09T00:25:25.057Z,4.70
2022-11-09T00:27:53.571Z,4.30
2022-11-09T00:30:20.896Z,6.32
2022-11-09T00:32:48.666Z,5.90
2022-11-09T00:35:16.058Z,5.68
2022-11-09T00:37:43.395Z,4.63
2022-11-09T00:40:11.428Z,4.85
2022-11-09T00:42:38.695Z,5.60
2022-11-09T00:45:06.419Z,5.15
2022-11-09T00:47:33.709Z,5.10
2022-11-09T00:50:01.213Z,4.63
2022-11-09T00:52:28.831Z,4.68
2022-11-09T00:54:56.553Z,4.78
2022-11-09T00:57:23.929Z,6.63
2022-11-09T00:59:52.037Z,5.47
2022-11-09T01:02:19.668Z,5.55
2022-11-09T01:04:46.917Z,5.60
2022-11-09T01:07:14.410Z,5.20
2022-11-09T01:09:42.189Z,5.05
2022-11-09T01:12:09.419Z,5.18
2022-11-09T01:14:37.380Z,4.43
2022-11-09T01:17:04.679Z,4.60
2022-11-09T01:19:31.942Z,4.55
2022-11-09T01:21:59.233Z,5.60
2022-11-09T01:24:26.500Z,5.32
2022-11-09T01:26:54.237Z,4.53
2022-11-09T01:29:21.533Z,4.78
2022-11-09T01:31:49.127Z,5.50
2022-11-09T01:34:17.640Z,4.32
2022-11-09T01:36:44.983Z,4.68
2022-11-09T01:39:12.273Z,5.72
2022-11-09T01:41:39.558Z,5.38
2022-11-09T01:44:09.941Z,5.22
2022-11-09T01:46:40.453Z,4.95
2022-11-09T01:49:54.037Z,4.95
2022-11-09T01:52:36.088Z,4.55
2022-11-09T01:55:12.092Z,3.78
2022-11-09T01:57:51.225Z,3.90
2022-11-09T02:00:18.833Z,3.90
2022-11-09T02:03:05.400Z,5.38
2022-11-09T02:05:34.987Z,4.57
2022-11-09T02:08:04.827Z,4.35
2022-11-09T02:10:57.421Z,4.63
2022-11-09T02:13:26.911Z,4.38
2022-11-09T02:15:55.115Z,4.30
2022-11-09T02:18:22.751Z,4.25
2022-11-09T02:20:52.746Z,4.40
2022-11-09T02:23:21.185Z,3.78
2022-11-09T02:25:54.191Z,5.18
2022-11-09T02:28:22.364Z,4.72
2022-11-09T02:30:53.633Z,5.15
2022-11-09T02:33:21.964Z,4.13
2022-11-09T02:35:49.387Z,5.10
2022-11-09T02:38:16.862Z,4.50
2022-11-09T02:40:50.025Z,5.25
2022-11-09T02:43:19.714Z,4.43
2022-11-09T02:45:47.187Z,4.35
2022-11-09T02:48:14.498Z,3.78
2022-11-09T02:50:41.917Z,3.88
2022-11-09T02:53:09.282Z,3.42
2022-11-09T02:55:36.560Z,4.68
2022-11-09T02:58:03.828Z,3.90
2022-11-09T03:00:31.286Z,3.97
2022-11-09T03:02:59.147Z,3.83
2022-11-09T03:05:26.522Z,4.53
2022-11-09T03:07:53.808Z,3.83
2022-11-09T03:10:21.069Z,4.03
2022-11-09T03:12:48.362Z,4.45
2022-11-09T03:15:15.634Z,4.15
2022-11-09T03:17:42.990Z,4.07
2022-11-09T03:20:10.961Z,4.28
2022-11-09T03:22:38.300Z,4.15
2022-11-09T03:25:06.644Z,3.67
2022-11-09T03:27:33.889Z,3.58
2022-11-09T03:30:01.474Z,3.55
2022-11-09T03:32:28.781Z,3.65
2022-11-09T03:34:56.931Z,3.72
2022-11-09T03:37:24.295Z,3.10
2022-11-09T03:39:51.517Z,3.67
2022-11-09T03:42:18.816Z,4.10
2022-11-09T03:44:46.665Z,2.72
2022-11-09T03:47:13.895Z,3.08
2022-11-09T03:49:41.148Z,3.92
2022-11-09T03:52:08.489Z,3.53
2022-11-09T03:54:35.802Z,5.43
2022-11-09T03:57:03.107Z,3.28
2022-11-09T03:59:30.432Z,3.05
2022-11-09T04:01:59.191Z,2.65
2022-11-09T04:04:26.513Z,2.58
2022-11-09T04:06:53.871Z,2.90
2022-11-09T04:09:21.168Z,3.35
2022-11-09T04:11:48.683Z,2.67
2022-11-09T04:14:15.932Z,2.40
2022-11-09T04:16:43.212Z,2.70
2022-11-09T04:19:10.507Z,2.72
2022-11-09T04:21:37.765Z,2.40
2022-11-09T04:24:05.258Z,3.58
2022-11-09T04:26:33.391Z,2.90
2022-11-09T04:29:00.817Z,2.78
2022-11-09T04:31:28.414Z,2.20
2022-11-09T04:33:55.853Z,2.85
2022-11-09T04:36:23.494Z,2.90
2022-11-09T04:38:50.976Z,2.20
2022-11-09T04:41:18.279Z,3.55
2022-11-09T04:43:45.599Z,2.38
2022-11-09T04:46:12.864Z,2.42
2022-11-09T04:48:40.275Z,3.17
2022-11-09T04:51:13.094Z,2.17
2022-11-09T04:53:40.490Z,2.90
2022-11-09T04:56:08.479Z,2.55
2022-11-09T04:58:35.853Z,2.42
2022-11-09T05:01:10.050Z,1.88
2022-11-09T05:03:37.830Z,3.78
2022-11-09T05:06:25.765Z,3.17
2022-11-09T05:08:54.275Z,3.00
2022-11-09T05:11:22.669Z,2.42
2022-11-09T05:13:51.590Z,2.42
2022-11-09T05:16:19.676Z,2.03
2022-11-09T05:18:47.630Z,2.05
2022-11-09T05:21:15.201Z,3.47
2022-11-09T05:24:01.125Z,3.15
2022-11-09T05:26:40.150Z,3.23
2022-11-09T05:29:09.964Z,3.55
2022-11-09T05:31:38.869Z,2.38
2022-11-09T05:34:07.140Z,3.45
2022-11-09T05:36:34.586Z,3.78
2022-11-09T05:39:01.946Z,3.15
2022-11-09T05:41:29.235Z,1.85
2022-11-09T05:43:56.769Z,2.83
2022-11-09T05:46:25.228Z,3.13
2022-11-09T05:48:52.480Z,2.03
2022-11-09T05:51:19.892Z,1.63
2022-11-09T05:53:47.435Z,1.92
2022-11-09T05:56:15.165Z,2.17
2022-11-09T05:58:42.751Z,1.67
2022-11-09T06:01:13.254Z,2.17
2022-11-09T06:03:42.113Z,2.38
2022-11-09T06:06:10.942Z,2.47
2022-11-09T06:08:38.716Z,2.20
2022-11-09T06:11:08.797Z,2.38
2022-11-09T06:13:36.401Z,2.97
2022-11-09T06:16:05.648Z,2.10
2022-11-09T06:18:33.980Z,2.10
2022-11-09T06:21:03.588Z,1.98
2022-11-09T06:23:31.501Z,1.98
2022-11-09T06:26:00.927Z,1.90
2022-11-09T06:28:28.723Z,1.80
2022-11-09T06:31:00.667Z,1.80
2022-11-09T06:33:30.893Z,1.80
2022-11-09T06:35:58.799Z,1.98
2022-11-09T06:38:26.699Z,1.65
2022-11-09T06:40:55.461Z,1.38
2022-11-09T06:43:23.595Z,2.35
2022-11-09T06:45:51.352Z,1.73
2022-11-09T06:48:18.778Z,1.65
2022-11-09T06:50:46.610Z,2.05
2022-11-09T06:53:15.715Z,1.52
2022-11-09T06:55:49.887Z,3.30
2022-11-09T06:58:17.517Z,1.65
2022-11-09T07:00:45.378Z,1.40
2022-11-09T07:03:17.171Z,1.55
2022-11-09T07:05:45.224Z,1.58
2022-11-09T07:08:13.554Z,1.77
2022-11-09T07:10:41.130Z,1.40
2022-11-09T07:13:09.335Z,1.40
2022-11-09T07:15:37.883Z,1.58
2022-11-09T07:18:08.442Z,1.33
2022-11-09T07:20:35.703Z,1.90
2022-11-09T07:23:02.957Z,1.45
2022-11-09T07:25:30.283Z,2.80
2022-11-09T07:28:06.070Z,1.95
2022-11-09T07:30:33.669Z,1.60
2022-11-09T07:33:10.093Z,1.80
2022-11-09T07:35:38.673Z,2.30
2022-11-09T07:38:06.256Z,2.28
2022-11-09T07:40:34.438Z,2.40
2022-11-09T07:43:03.757Z,1.85
2022-11-09T07:45:31.940Z,1.88
2022-11-09T07:48:07.518Z,3.03
2022-11-09T07:50:36.192Z,2.00
2022-11-09T07:53:03.911Z,2.53
2022-11-09T07:55:31.581Z,3.10
2022-11-09T07:58:01.189Z,2.28
2022-11-09T08:00:30.425Z,1.95
2022-11-09T08:02:58.104Z,1.92
2022-11-09T08:05:25.810Z,2.13
2022-11-09T08:07:57.155Z,2.22
2022-11-09T08:10:26.362Z,1.88
2022-11-09T08:12:58.393Z,2.13
2022-11-09T08:15:26.336Z,1.60
2022-11-09T08:17:53.896Z,2.13
2022-11-09T08:20:21.665Z,2.88
2022-11-09T08:22:49.470Z,1.80
2022-11-09T08:25:16.958Z,1.63
2022-11-09T08:27:44.399Z,1.88
2022-11-09T08:30:17.717Z,1.80
2022-11-09T08:32:45.567Z,1.48
2022-11-09T08:35:17.828Z,1.73
2022-11-09T08:37:47.026Z,2.00
2022-11-09T08:40:16.933Z,1.88
2022-11-09T08:42:44.562Z,1.60
2022-11-09T08:45:12.395Z,2.17
2022-11-09T08:47:40.335Z,1.63
2022-11-09T08:50:10.100Z,1.65
2022-11-09T08:52:38.056Z,1.83
2022-11-09T08:55:06.033Z,1.70
2022-11-09T08:57:33.693Z,1.55
2022-11-09T09:00:00.984Z,2.20
2022-11-09T09:02:28.280Z,1.70
2022-11-09T09:04:55.603Z,1.70
2022-11-09T09:07:23.164Z,1.60
2022-11-09T09:09:50.420Z,1.95
2022-11-09T09:12:18.169Z,1.88
2022-11-09T09:14:45.742Z,1.40
2022-11-09T09:17:13.114Z,1.38
2022-11-09T09:19:40.402Z,1.58
2022-11-09T09:22:08.052Z,1.48
2022-11-09T09:24:35.518Z,1.65
2022-11-09T09:27:02.974Z,2.80
2022-11-09T09:29:30.442Z,1.42
2022-11-09T09:31:58.732Z,1.55
2022-11-09T09:34:26.219Z,1.23
2022-11-09T09:36:54.178Z,1.40
2022-11-09T09:39:21.540Z,1.50
2022-11-09T09:41:55.111Z,1.27
2022-11-09T09:44:46.699Z,1.48
2022-11-09T09:47:45.678Z,2.53
2022-11-09T09:50:24.100Z,1.63
2022-11-09T09:53:22.605Z,1.45
2022-11-09T09:55:53.864Z,1.55
2022-11-09T09:58:27.050Z,2.15
2022-11-09T10:01:12.053Z,1.52
2022-11-09T10:03:39.349Z,1.73
2022-11-09T10:06:26.032Z,1.65
2022-11-09T10:09:11.989Z,1.45
2022-11-09T10:12:05.502Z,1.20
2022-11-09T10:15:01.860Z,1.60
2022-11-09T10:17:53.885Z,1.45
2022-11-09T10:20:42.546Z,1.23
2022-11-09T10:24:04.566Z,1.38
2022-11-09T10:26:41.174Z,1.40
2022-11-09T10:29:20.645Z,1.67
2022-11-09T10:31:49.717Z,1.27
2022-11-09T10:34:26.989Z,1.70
2022-11-09T10:37:13.529Z,2.30
2022-11-09T10:39:49.393Z,1.77
2022-11-09T10:42:16.806Z,1.67
2022-11-09T10:44:44.120Z,1.55
2022-11-09T10:47:14.207Z,1.75
2022-11-09T10:49:41.722Z,1.55
2022-11-09T10:52:47.061Z,2.00
2022-11-09T10:55:16.829Z,1.77
2022-11-09T10:58:01.299Z,1.73
2022-11-09T11:00:29.017Z,2.08
2022-11-09T11:02:56.660Z,2.03
2022-11-09T11:05:27.161Z,2.33
2022-11-09T11:07:54.746Z,2.15
2022-11-09T11:10:23.390Z,2.22
2022-11-09T11:13:05.551Z,2.47
2022-11-09T11:15:43.799Z,1.95
2022-11-09T11:18:22.142Z,1.30
2022-11-09T11:21:06.306Z,2.05
2022-11-09T11:23:36.941Z,2.00
2022-11-09T11:26:19.448Z,1.35
2022-11-09T11:28:56.199Z,1.83
2022-11-09T11:31:23.675Z,1.52
2022-11-09T11:33:51.084Z,1.58
2022-11-09T11:36:45.936Z,1.85
2022-11-09T11:39:29.687Z,2.08
2022-11-09T11:42:15.742Z,1.70
2022-11-09T11:44:59.277Z,1.90
2022-11-09T11:47:55.931Z,1.75
2022-11-09T11:50:56.610Z,3.00
2022-11-09T11:53:35.637Z,1.40
2022-11-09T11:56:32.926Z,1.35
2022-11-09T11:59:09.264Z,1.65
2022-11-09T12:01:57.786Z,1.60
2022-11-09T12:04:34.068Z,1.90
2022-11-09T12:07:14.699Z,1.40
2022-11-09T12:10:19.943Z,1.55
2022-11-09T12:12:59.985Z,1.50
2022-11-09T12:15:45.739Z,2.17
2022-11-09T12:18:29.394Z,1.77
2022-11-09T12:21:16.584Z,1.92
2022-11-09T12:24:18.529Z,1.95
2022-11-09T12:27:25.540Z,2.50
2022-11-09T12:30:10.610Z,1.60
2022-11-09T12:32:44.353Z,2.45
2022-11-09T12:35:49.543Z,2.20
2022-11-09T12:38:54.198Z,2.13
2022-11-09T12:41:24.792Z,2.05
2022-11-09T12:44:17.237Z,2.28
2022-11-09T12:46:51.284Z,1.58
2022-11-09T12:49:32.263Z,2.70
2022-11-09T12:51:59.623Z,2.15
2022-11-09T12:54:28.012Z,2.03
2022-11-09T12:57:05.178Z,2.20
2022-11-09T12:59:37.776Z,2.53
2022-11-09T13:02:06.095Z,1.63
2022-11-09T13:04:33.742Z,1.88
2022-11-09T13:07:06.954Z,2.40
2022-11-09T13:09:44.308Z,1.95
2022-11-09T13:12:33.243Z,1.48
2022-11-09T13:15:24.587Z,1.48
2022-11-09T13:18:03.486Z,1.40
2022-11-09T13:23:41.818Z,1.52
2022-11-09T13:26:24.927Z,2.00
2022-11-09T13:29:26.501Z,2.53
2022-11-09T13:32:09.244Z,1.48
2022-11-09T13:34:49.758Z,1.83
2022-11-09T13:37:38.354Z,1.80
2022-11-09T13:40:30.543Z,2.38
2022-11-09T13:43:13.285Z,1.73
2022-11-09T13:45:55.775Z,1.75
2022-11-09T13:48:34.852Z,2.10
2022-11-09T13:51:08.428Z,1.80
2022-11-09T13:53:38.598Z,2.65
2022-11-09T13:56:32.162Z,2.10
2022-11-09T13:59:23.802Z,1.52
2022-11-09T14:01:59.837Z,2.42
2022-11-09T14:04:39.365Z,2.80
2022-11-09T14:07:16.159Z,2.08
2022-11-09T14:09:53.838Z,2.60
2022-11-09T14:12:33.124Z,2.60
2022-11-09T14:15:11.380Z,2.05
2022-11-09T14:17:52.666Z,2.15
2022-11-09T14:20:43.418Z,1.98
2022-11-09T14:23:17.095Z,1.85
2022-11-09T14:25:45.564Z,2.92
2022-11-09T14:28:34.708Z,2.00
2022-11-09T14:31:02.700Z,1.50
2022-11-09T14:33:34.587Z,2.22
2022-11-09T14:36:04.517Z,1.55
2022-11-09T14:38:43.407Z,1.73
2022-11-09T14:41:25.867Z,2.35
2022-11-09T14:43:56.316Z,1.95
2022-11-09T14:46:27.517Z,2.25
2022-11-09T14:49:01.296Z,2.10
2022-11-09T14:51:38.258Z,2.10
2022-11-09T14:54:13.472Z,2.42
2022-11-09T14:56:42.698Z,2.63
2022-11-09T14:59:23.235Z,2.80
2022-11-09T15:02:16.142Z,2.03
2022-11-09T15:05:03.719Z,2.20
2022-11-09T15:07:34.483Z,2.03
2022-11-09T15:10:06.840Z,1.90
2022-11-09T15:12:36.128Z,2.08
2022-11-09T15:15:06.805Z,2.33
2022-11-09T15:17:37.454Z,1.65
2022-11-09T15:20:26.482Z,1.85
2022-11-09T15:23:05.980Z,1.80
2022-11-09T15:25:33.249Z,1.70
2022-11-09T15:28:09.394Z,2.05
2022-11-09T15:30:49.501Z,2.85
2022-11-09T15:33:20.853Z,1.45
2022-11-09T15:36:06.807Z,2.17
2022-11-09T15:38:37.881Z,1.83
2022-11-09T15:41:14.276Z,2.88
2022-11-09T15:43:41.748Z,2.88
2022-11-09T15:46:15.943Z,2.85
2022-11-09T15:48:46.334Z,2.05
2022-11-09T15:51:15.439Z,2.33
2022-11-09T15:53:43.095Z,3.38
2022-11-09T15:56:20.317Z,2.05
2022-11-09T15:58:49.336Z,2.78
2022-11-09T16:01:16.990Z,2.00
2022-11-09T16:03:44.344Z,2.15
2022-11-09T16:06:19.173Z,2.00
2022-11-09T16:08:51.170Z,2.35
2022-11-09T16:11:18.544Z,3.00
2022-11-09T16:13:46.168Z,2.53
2022-11-09T16:16:15.704Z,2.13
2022-11-09T16:18:43.860Z,1.70
2022-11-09T16:21:13.412Z,2.05
2022-11-09T16:23:40.936Z,2.25
2022-11-09T16:26:27.277Z,1.92
2022-11-09T16:28:55.214Z,2.25
2022-11-09T16:31:48.242Z,2.78
2022-11-09T16:34:09.877Z,4.15
2022-11-09T16:36:38.946Z,3.53
2022-11-09T16:39:12.832Z,4.47
2022-11-09T16:41:42.364Z,4.10
2022-11-09T16:44:10.437Z,4.25
2022-11-09T16:46:37.988Z,3.80
2022-11-09T16:49:05.422Z,3.35
2022-11-09T16:51:32.920Z,3.22
2022-11-09T16:54:00.325Z,3.95
2022-11-09T16:56:27.586Z,2.50
2022-11-09T16:58:54.893Z,2.88
2022-11-09T17:01:23.664Z,2.45
2022-11-09T17:03:51.449Z,2.60
2022-11-09T17:06:18.808Z,2.67
2022-11-09T17:08:46.204Z,2.20
2022-11-09T17:11:15.243Z,2.50
2022-11-09T17:13:42.674Z,2.45
2022-11-09T17:16:12.628Z,2.22
2022-11-09T17:18:40.428Z,3.10
2022-11-09T17:21:12.020Z,3.33
2022-11-09T17:23:39.676Z,4.30
2022-11-09T17:26:07.964Z,2.50
2022-11-09T17:28:41.532Z,4.57
2022-11-09T17:31:16.711Z,2.67
2022-11-09T17:33:44.773Z,2.50
2022-11-09T17:36:14.128Z,2.40
2022-11-09T17:38:41.825Z,2.92
2022-11-09T17:41:18.112Z,2.85
2022-11-09T17:43:46.046Z,3.10
2022-11-09T17:46:16.205Z,3.10
2022-11-09T17:48:45.474Z,3.97
2022-11-09T17:51:14.818Z,3.65
2022-11-09T17:53:42.780Z,3.20
2022-11-09T17:56:11.211Z,4.00
2022-11-09T17:58:41.484Z,6.10
2022-11-09T18:01:11.976Z,3.53
2022-11-09T18:03:39.722Z,3.85
2022-11-09T18:06:16.874Z,2.75
2022-11-09T18:08:45.697Z,3.13
2022-11-09T18:11:16.181Z,3.88
2022-11-09T18:13:44.059Z,3.33
2022-11-09T18:16:17.738Z,3.45
2022-11-09T18:18:45.865Z,3.28
2022-11-09T18:21:18.527Z,4.03
2022-11-09T18:23:46.510Z,3.80
2022-11-09T18:26:14.408Z,2.85
2022-11-09T18:28:42.834Z,3.83
2022-11-09T18:31:12.389Z,3.15
2022-11-09T18:33:40.348Z,3.58
2022-11-09T18:36:19.412Z,3.22
2022-11-09T18:38:47.120Z,3.63
2022-11-09T18:41:19.748Z,3.70
2022-11-09T18:43:47.511Z,3.00
2022-11-09T18:46:16.145Z,3.53
2022-11-09T18:48:44.049Z,4.15
2022-11-09T18:51:12.016Z,4.43
2022-11-09T18:53:44.368Z,4.13
2022-11-09T18:56:22.938Z,4.15
2022-11-09T18:58:55.422Z,3.83
2022-11-09T19:01:25.072Z,4.82
2022-11-09T19:03:56.457Z,3.65
2022-11-09T19:06:26.941Z,3.83
2022-11-09T19:09:12.750Z,3.55
2022-11-09T19:11:40.216Z,3.47
2022-11-09T19:14:07.546Z,3.28
2022-11-09T19:16:35.997Z,3.22
2022-11-09T19:19:03.261Z,3.80
2022-11-09T19:21:54.167Z,3.28
2022-11-09T19:24:24.284Z,3.83
2022-11-09T19:26:52.079Z,4.28
2022-11-09T19:29:19.435Z,5.50
2022-11-09T19:31:48.617Z,3.88
2022-11-09T19:34:18.628Z,3.60
2022-11-09T19:36:46.499Z,3.30
2022-11-09T19:39:15.242Z,3.45
2022-11-09T19:41:42.802Z,4.63
2022-11-09T19:44:12.850Z,3.20
2022-11-09T19:46:40.627Z,4.07
2022-11-09T19:49:09.351Z,3.83
2022-11-09T19:51:37.577Z,2.80
2022-11-09T19:54:05.971Z,3.20
2022-11-09T19:56:33.541Z,3.65
2022-11-09T19:59:02.372Z,3.90
2022-11-09T20:01:30.918Z,2.88
2022-11-09T20:04:00.031Z,3.65
2022-11-09T20:06:28.563Z,3.28
2022-11-09T20:08:56.300Z,3.42
2022-11-09T20:11:43.702Z,3.75
2022-11-09T20:14:12.271Z,3.75
2022-11-09T20:16:40.571Z,4.53
2022-11-09T20:19:11.011Z,5.13
2022-11-09T20:21:40.646Z,3.88
2022-11-09T20:24:08.757Z,4.90
2022-11-09T20:26:36.235Z,3.97
2022-11-09T20:29:03.859Z,4.15
2022-11-09T20:31:31.268Z,3.35
2022-11-09T20:34:01.530Z,4.10
2022-11-09T20:36:31.560Z,4.00
2022-11-09T20:38:59.203Z,4.10
2022-11-09T20:41:27.030Z,5.35
2022-11-09T20:43:54.619Z,3.63
2022-11-09T20:46:25.431Z,3.80
2022-11-09T20:48:54.894Z,2.95
2022-11-09T20:51:24.057Z,3.67
2022-11-09T20:53:51.588Z,4.72
2022-11-09T20:56:20.095Z,3.72
2022-11-09T20:58:47.739Z,4.50
2022-11-09T21:01:20.805Z,4.50
2022-11-09T21:03:50.239Z,3.75
2022-11-09T21:06:17.998Z,4.85
2022-11-09T21:08:50.934Z,3.85
2022-11-09T21:11:19.281Z,4.50
2022-11-09T21:13:51.072Z,3.75
2022-11-09T21:16:20.031Z,3.50
2022-11-09T21:18:48.355Z,3.20
2022-11-09T21:21:21.336Z,3.20
2022-11-09T21:24:07.114Z,3.55
2022-11-09T21:26:53.370Z,4.07
2022-11-09T21:29:42.957Z,4.03
2022-11-09T21:32:11.666Z,3.63
2022-11-09T21:34:39.400Z,4.78
2022-11-09T21:37:06.950Z,4.95
2022-11-09T21:39:34.589Z,4.68
2022-11-09T21:42:03.059Z,4.40
2022-11-09T21:44:32.521Z,4.10
2022-11-09T21:47:00.740Z,4.20
2022-11-09T21:49:28.417Z,4.25
2022-11-09T21:51:55.757Z,5.28
2022-11-09T21:54:24.133Z,4.25
2022-11-09T21:56:52.215Z,6.00
2022-11-09T21:59:19.797Z,3.60
2022-11-09T22:01:47.192Z,4.45
2022-11-09T22:04:15.247Z,4.72
2022-11-09T22:06:43.509Z,4.28
2022-11-09T22:09:17.105Z,4.50
2022-11-09T22:12:04.024Z,4.82
2022-11-09T22:17:17.099Z,3.83
2022-11-09T22:20:02.887Z,3.78
2022-11-09T22:22:31.194Z,4.28
2022-11-09T22:24:58.791Z,4.70
2022-11-09T22:27:30.291Z,5.13
2022-11-09T22:29:57.617Z,4.03
2022-11-09T22:32:25.034Z,3.97
2022-11-09T22:34:53.066Z,4.03
2022-11-09T22:37:20.722Z,4.68
2022-11-09T22:39:48.121Z,5.63
2022-11-09T22:42:16.028Z,5.05
2022-11-09T22:44:43.415Z,3.95
2022-11-09T22:47:10.849Z,4.32
2022-11-09T22:49:40.299Z,4.18
2022-11-09T22:52:07.786Z,4.80
2022-11-09T22:54:36.045Z,3.83
2022-11-09T22:57:03.990Z,3.33
2022-11-09T22:59:31.400Z,3.90
2022-11-09T23:01:58.728Z,4.68
2022-11-09T23:04:26.022Z,4.30
2022-11-09T23:06:53.443Z,3.40
2022-11-09T23:09:20.824Z,4.00
2022-11-09T23:11:48.210Z,3.95
2022-11-09T23:14:35.578Z,5.63
2022-11-09T23:17:22.904Z,3.78
2022-11-09T23:19:50.304Z,4.30
2022-11-09T23:22:17.538Z,4.60
2022-11-09T23:25:03.794Z,4.70
2022-11-09T23:27:31.087Z,3.95
2022-11-09T23:29:58.360Z,3.50
2022-11-09T23:32:26.674Z,3.30
2022-11-09T23:34:53.939Z,3.80
2022-11-09T23:37:21.501Z,5.55
2022-11-09T23:39:48.915Z,4.53
2022-11-09T23:42:16.224Z,4.30
2022-11-09T23:44:43.586Z,4.47
2022-11-09T23:47:11.110Z,4.38
2022-11-09T23:49:38.456Z,4.57
2022-11-09T23:52:05.869Z,3.70
2022-11-09T23:54:33.576Z,4.90
2022-11-09T23:57:01.077Z,5.45
2022-11-09T23:59:28.486Z,3.35
